createdAt,value
2023-03-02T00:02:22.377Z,24.25
2023-03-02T00:07:31.913Z,28.52
2023-03-02T00:12:34.314Z,27.10
2023-03-02T00:17:37.196Z,25.02
2023-03-02T00:22:40.613Z,24.48
2023-03-02T00:27:42.559Z,26.02
2023-03-02T00:32:45.693Z,24.55
2023-03-02T00:37:48.210Z,29.27
2023-03-02T00:42:50.000Z,25.98
2023-03-02T00:47:51.952Z,21.70
2023-03-02T00:52:53.800Z,26.23
2023-03-02T00:57:55.566Z,27.52
2023-03-02T01:03:02.238Z,28.02
2023-03-02T01:08:04.390Z,30.60
2023-03-02T01:13:07.080Z,32.50
2023-03-02T01:23:10.494Z,30.35
2023-03-02T01:28:12.761Z,29.83
2023-03-02T01:33:14.704Z,31.60
2023-03-02T01:38:16.476Z,36.63
2023-03-02T01:43:18.365Z,32.53
2023-03-02T01:48:39.020Z,31.15
2023-03-02T01:53:46.570Z,31.40
2023-03-02T01:58:53.758Z,34.55
2023-03-02T02:03:57.211Z,28.15
2023-03-02T02:09:01.512Z,30.83
2023-03-02T02:14:06.580Z,27.13
2023-03-02T02:19:39.419Z,30.95
2023-03-02T02:24:52.257Z,31.17
2023-03-02T02:29:54.463Z,29.88
2023-03-02T02:35:18.369Z,30.20
2023-03-02T02:40:38.340Z,28.70
2023-03-02T02:45:41.633Z,28.35
2023-03-02T02:50:44.358Z,31.83
2023-03-02T02:55:51.017Z,29.80
2023-03-02T03:00:54.674Z,34.70
2023-03-02T03:05:59.691Z,34.67
2023-03-02T03:11:02.211Z,31.73
2023-03-02T03:16:08.051Z,33.13
2023-03-02T03:21:10.575Z,34.47
2023-03-02T03:26:15.092Z,30.75
2023-03-02T03:31:17.366Z,30.95
2023-03-02T03:36:19.410Z,34.17
2023-03-02T03:41:22.132Z,27.63
2023-03-02T03:46:24.656Z,28.15
2023-03-02T03:51:27.432Z,30.58
2023-03-02T03:56:33.504Z,30.55
2023-03-02T04:01:38.760Z,27.60
2023-03-02T04:06:41.558Z,31.92
2023-03-02T04:11:44.958Z,33.45
2023-03-02T04:16:47.788Z,32.22
2023-03-02T04:21:52.363Z,31.25
2023-03-02T04:26:54.973Z,28.60
2023-03-02T04:31:56.812Z,29.17
2023-03-02T04:37:00.582Z,28.85
2023-03-02T04:42:02.566Z,27.98
2023-03-02T04:47:04.280Z,30.50
2023-03-02T04:52:06.685Z,32.57
2023-03-02T05:02:11.848Z,28.67
2023-03-02T05:07:13.633Z,30.10
2023-03-02T05:12:15.483Z,31.33
2023-03-02T05:17:17.260Z,29.47
2023-03-02T05:22:19.372Z,32.20
2023-03-02T05:27:21.050Z,35.47
2023-03-02T05:32:22.723Z,30.70
2023-03-02T05:37:24.536Z,35.87
2023-03-02T05:42:26.424Z,30.53
2023-03-02T05:47:28.108Z,28.27
2023-03-02T05:52:29.837Z,28.90
2023-03-02T05:57:31.557Z,34.23
2023-03-02T06:02:33.253Z,33.77
2023-03-02T06:07:35.033Z,32.17
2023-03-02T06:12:37.193Z,30.38
2023-03-02T06:17:38.922Z,27.37
2023-03-02T06:22:45.483Z,33.40
2023-03-02T06:27:49.890Z,37.75
2023-03-02T06:32:51.846Z,34.50
2023-03-02T06:37:53.726Z,36.47
2023-03-02T06:42:55.366Z,32.83
2023-03-02T06:47:57.200Z,25.85
2023-03-02T06:52:59.018Z,30.70
2023-03-02T06:58:00.717Z,31.97
2023-03-02T07:03:02.523Z,39.42
2023-03-02T07:08:04.705Z,33.63
2023-03-02T07:13:08.732Z,33.22
2023-03-02T07:18:10.832Z,32.72
2023-03-02T07:23:12.699Z,33.07
2023-03-02T07:28:15.724Z,36.33
2023-03-02T07:33:17.389Z,35.45
2023-03-02T07:38:20.295Z,41.67
2023-03-02T07:43:24.108Z,33.05
2023-03-02T07:48:28.495Z,31.27
2023-03-02T07:53:33.063Z,34.50
2023-03-02T07:58:35.428Z,34.55
2023-03-02T08:03:38.873Z,31.33
2023-03-02T08:08:40.579Z,30.02
2023-03-02T08:13:43.005Z,32.30
2023-03-02T08:18:44.820Z,31.60
2023-03-02T08:23:46.738Z,27.88
2023-03-02T08:28:48.933Z,30.90
2023-03-02T08:33:50.739Z,31.98
2023-03-02T08:38:52.476Z,27.17
2023-03-02T08:43:57.291Z,29.08
2023-03-02T08:48:59.232Z,27.02
2023-03-02T08:54:01.237Z,26.33
2023-03-02T08:59:06.182Z,33.50
2023-03-02T09:04:09.586Z,26.15
2023-03-02T09:09:13.217Z,25.33
2023-03-02T09:14:15.205Z,24.38
2023-03-02T09:19:16.950Z,29.03
2023-03-02T09:24:22.978Z,27.02
2023-03-02T09:29:24.649Z,29.70
2023-03-02T09:34:26.462Z,26.02
2023-03-02T09:39:28.220Z,24.75
2023-03-02T09:44:42.010Z,22.85
2023-03-02T09:49:57.859Z,20.90
2023-03-02T09:55:11.515Z,23.73
2023-03-02T10:00:24.459Z,23.15
2023-03-02T10:05:45.275Z,19.63
2023-03-02T10:11:00.107Z,19.70
2023-03-02T10:16:42.716Z,19.98
2023-03-02T10:21:47.465Z,22.15
2023-03-02T10:26:54.290Z,22.30
2023-03-02T10:32:16.453Z,15.68
2023-03-02T10:37:29.339Z,21.60
2023-03-02T10:42:37.906Z,17.67
2023-03-02T10:47:39.700Z,14.65
2023-03-02T10:52:59.506Z,11.70
2023-03-02T10:58:21.841Z,16.35
2023-03-02T11:03:23.817Z,16.23
2023-03-02T11:08:27.872Z,17.90
2023-03-02T11:13:35.642Z,13.15
2023-03-02T11:18:43.764Z,15.23
2023-03-02T11:24:05.787Z,16.52
2023-03-02T11:29:25.904Z,13.77
2023-03-02T11:34:56.847Z,19.13
2023-03-02T11:40:26.492Z,16.63
2023-03-02T11:45:36.296Z,19.23
2023-03-02T11:50:51.224Z,32.17
2023-03-02T11:55:53.008Z,16.75
2023-03-02T12:00:55.820Z,16.25
2023-03-02T12:11:35.262Z,13.02
2023-03-02T12:16:43.577Z,14.88
2023-03-02T12:22:00.627Z,14.32
2023-03-02T12:27:20.884Z,14.18
2023-03-02T12:32:27.844Z,15.43
2023-03-02T12:37:34.972Z,18.17
2023-03-02T12:43:08.935Z,13.05
2023-03-02T12:48:52.693Z,16.10
2023-03-02T12:54:12.157Z,18.95
2023-03-02T12:59:26.736Z,10.25
2023-03-02T13:04:28.546Z,13.50
2023-03-02T13:09:30.421Z,14.10
2023-03-02T13:14:32.682Z,10.10
2023-03-02T13:19:34.615Z,18.17
2023-03-02T13:24:50.253Z,15.38
2023-03-02T13:29:55.468Z,14.68
2023-03-02T13:34:59.621Z,11.98
2023-03-02T13:40:04.254Z,11.43
2023-03-02T13:45:17.200Z,11.27
2023-03-02T13:50:21.231Z,14.98
2023-03-02T13:55:23.862Z,21.08
2023-03-02T14:05:33.468Z,12.80
2023-03-02T14:10:35.316Z,11.95
2023-03-02T14:15:43.258Z,12.57
2023-03-02T14:20:46.152Z,15.45
2023-03-02T14:30:54.839Z,15.77
2023-03-02T14:35:58.697Z,15.18
2023-03-02T14:41:00.468Z,14.45
2023-03-02T14:46:02.261Z,11.82
2023-03-02T14:51:04.669Z,16.25
2023-03-02T14:56:07.974Z,13.13
2023-03-02T15:01:14.884Z,13.80
2023-03-02T15:06:26.070Z,11.85
2023-03-02T15:11:29.037Z,10.07
2023-03-02T15:16:33.841Z,11.60
2023-03-02T15:21:35.627Z,11.13
2023-03-02T15:26:39.223Z,14.95
2023-03-02T15:31:41.048Z,14.50
2023-03-02T15:36:45.924Z,12.52
2023-03-02T15:41:47.984Z,16.43
2023-03-02T15:46:55.211Z,14.43
2023-03-02T15:51:57.662Z,11.38
2023-03-02T15:56:59.525Z,14.48
2023-03-02T16:02:08.090Z,11.93
2023-03-02T16:07:09.840Z,11.75
2023-03-02T16:12:11.790Z,14.40
2023-03-02T16:17:14.446Z,11.98
2023-03-02T16:22:16.172Z,18.90
2023-03-02T16:27:18.040Z,23.52
2023-03-02T16:32:21.959Z,24.67
2023-03-02T16:37:23.736Z,21.95
2023-03-02T16:42:25.663Z,23.90
2023-03-02T16:47:27.366Z,22.73
2023-03-02T16:52:29.035Z,19.00
2023-03-02T16:57:30.712Z,23.55
2023-03-02T17:02:32.477Z,24.00
2023-03-02T17:07:34.589Z,19.23
2023-03-02T17:12:36.334Z,17.47
2023-03-02T17:17:38.870Z,17.50
2023-03-02T17:22:41.870Z,17.42
2023-03-02T17:27:44.942Z,16.90
2023-03-02T17:37:48.892Z,16.95
2023-03-02T17:42:54.562Z,20.30
2023-03-02T17:47:58.919Z,26.92
2023-03-02T17:53:00.846Z,16.83
2023-03-02T17:58:02.764Z,13.93
2023-03-02T18:03:04.946Z,14.05
2023-03-02T18:08:06.692Z,14.30
2023-03-02T18:13:08.787Z,15.98
2023-03-02T18:18:10.515Z,18.90
2023-03-02T18:23:13.068Z,21.95
2023-03-02T18:28:16.558Z,15.73
2023-03-02T18:33:18.277Z,14.77
2023-03-02T18:38:19.972Z,21.13
2023-03-02T18:43:21.999Z,14.55
2023-03-02T18:48:24.903Z,15.60
2023-03-02T18:58:33.940Z,14.70
2023-03-02T19:03:37.057Z,24.70
2023-03-02T19:08:38.941Z,17.13
2023-03-02T19:13:40.955Z,13.40
2023-03-02T19:18:42.615Z,20.50
2023-03-02T19:23:46.226Z,15.55
2023-03-02T19:28:48.853Z,25.70
2023-03-02T19:33:50.581Z,29.48
2023-03-02T19:38:52.202Z,29.20
2023-03-02T19:43:54.051Z,31.77
2023-03-02T19:48:55.974Z,23.97
2023-03-02T19:53:57.901Z,29.02
2023-03-02T19:59:00.307Z,22.90
2023-03-02T20:04:02.623Z,26.33
2023-03-02T20:09:06.544Z,28.63
2023-03-02T20:14:08.464Z,30.33
2023-03-02T20:19:11.280Z,26.37
2023-03-02T20:24:16.778Z,40.60
2023-03-02T20:29:18.989Z,39.58
2023-03-02T20:34:20.871Z,36.80
2023-03-02T20:39:32.171Z,51.63
2023-03-02T20:44:34.832Z,55.63
2023-03-02T20:49:37.860Z,48.80
2023-03-02T20:54:42.687Z,61.50
2023-03-02T20:59:45.882Z,59.00
2023-03-02T21:04:50.885Z,57.42
2023-03-02T21:09:52.626Z,54.85
2023-03-02T21:14:54.426Z,62.50
2023-03-02T21:19:57.163Z,59.45
2023-03-02T21:24:59.035Z,61.10
2023-03-02T21:30:03.237Z,56.37
2023-03-02T21:35:05.281Z,63.80
2023-03-02T21:40:10.463Z,61.83
2023-03-02T21:45:12.941Z,64.65
2023-03-02T21:50:22.406Z,69.93
2023-03-02T21:55:24.093Z,60.92
2023-03-02T22:00:34.268Z,61.75
2023-03-02T22:05:36.362Z,63.65
2023-03-02T22:10:41.680Z,68.95
2023-03-02T22:15:47.960Z,69.13
2023-03-02T22:20:51.181Z,65.43
2023-03-02T22:25:55.684Z,63.08
2023-03-02T22:30:59.763Z,64.68
2023-03-02T22:36:12.160Z,66.97
2023-03-02T22:41:18.047Z,67.55
2023-03-02T22:46:21.695Z,72.10
2023-03-02T22:51:28.185Z,68.65
2023-03-02T22:56:38.284Z,67.75
2023-03-02T23:01:42.696Z,75.43
2023-03-02T23:06:46.400Z,70.32
2023-03-02T23:11:50.324Z,71.38
2023-03-02T23:16:55.096Z,69.28
2023-03-02T23:21:58.026Z,65.43
2023-03-02T23:32:01.689Z,67.07
2023-03-02T23:37:03.619Z,79.22
2023-03-02T23:42:05.841Z,68.60
2023-03-02T23:47:07.951Z,71.03
2023-03-02T23:52:09.830Z,73.33
2023-03-02T23:57:11.933Z,69.68
